createdAt,value
2019-04-23T00:01:46.691Z,33.70
2019-04-23T00:04:00.947Z,35.37
2019-04-23T00:06:34.572Z,32.13
2019-04-23T00:09:07.309Z,31.97
2019-04-23T00:11:35.645Z,33.07
2019-04-23T00:14:05.679Z,27.63
2019-04-23T00:16:56.528Z,33.63
2019-04-23T00:19:03.179Z,30.60
2019-04-23T00:21:42.685Z,29.90
2019-04-23T00:24:20.479Z,27.67
2019-04-23T00:26:47.489Z,27.32
2019-04-23T00:29:19.006Z,28.23
2019-04-23T00:31:46.397Z,30.77
2019-04-23T00:34:16.198Z,23.07
2019-04-23T00:36:55.317Z,30.93
2019-04-23T00:39:16.717Z,25.57
2019-04-23T00:41:44.183Z,28.47
2019-04-23T00:44:15.148Z,26.93
2019-04-23T00:46:47.571Z,30.63
2019-04-23T00:49:21.302Z,29.30
2019-04-23T00:54:17.757Z,27.53
2019-04-23T00:59:12.514Z,26.73
2019-04-23T01:02:01.011Z,31.10
2019-04-23T01:04:20.463Z,26.33
2019-04-23T01:06:54.868Z,26.20
2019-04-23T01:09:24.084Z,34.10
2019-04-23T01:11:50.110Z,28.17
2019-04-23T01:14:23.037Z,30.57
2019-04-23T01:16:52.999Z,25.97
2019-04-23T01:19:31.373Z,27.37
2019-04-23T01:21:34.812Z,29.63
2019-04-23T01:24:19.318Z,30.57
2019-04-23T01:27:30.421Z,32.00
2019-04-23T01:29:42.548Z,31.43
2019-04-23T01:32:17.540Z,28.97
2019-04-23T01:34:50.186Z,27.17
2019-04-23T01:37:23.444Z,26.87
2019-04-23T01:39:44.130Z,27.67
2019-04-23T01:42:24.046Z,27.03
2019-04-23T01:44:54.071Z,31.77
2019-04-23T01:47:19.985Z,33.80
2019-04-23T01:49:53.943Z,31.57
2019-04-23T01:52:24.944Z,27.60
2019-04-23T01:54:52.887Z,26.60
2019-04-23T01:57:23.343Z,28.13
2019-04-23T01:59:57.976Z,29.80
2019-04-23T02:02:20.666Z,32.77
2019-04-23T02:04:59.179Z,33.67
2019-04-23T02:07:24.555Z,27.67
2019-04-23T02:10:02.330Z,32.37
2019-04-23T02:12:25.840Z,34.13
2019-04-23T02:14:57.270Z,27.53
2019-04-23T02:17:25.430Z,30.70
2019-04-23T02:19:51.345Z,32.20
2019-04-23T02:22:38.483Z,32.80
2019-04-23T02:25:25.099Z,28.13
2019-04-23T02:27:52.176Z,28.63
2019-04-23T02:30:46.663Z,33.27
2019-04-23T02:32:59.709Z,29.60
2019-04-23T02:35:32.851Z,36.50
2019-04-23T02:38:07.495Z,38.80
2019-04-23T02:40:30.556Z,35.23
2019-04-23T02:43:03.547Z,36.63
2019-04-23T02:48:01.819Z,35.97
2019-04-23T02:52:57.576Z,33.80
2019-04-23T02:55:27.166Z,34.30
2019-04-23T02:58:02.095Z,32.57
2019-04-23T03:00:28.759Z,30.33
2019-04-23T03:03:01.700Z,31.03
2019-04-23T03:05:32.934Z,28.97
2019-04-23T03:08:08.343Z,33.60
2019-04-23T03:13:07.665Z,35.33
2019-04-23T03:26:08.964Z,31.45
2019-04-23T03:38:43.395Z,34.77
2019-04-23T03:43:37.498Z,35.40
2019-04-23T03:51:05.608Z,36.53
2019-04-23T03:56:17.957Z,33.67
2019-04-23T04:01:19.820Z,37.20
2019-04-23T04:04:06.552Z,30.60
2019-04-23T04:06:13.469Z,33.83
2019-04-23T04:08:36.824Z,38.10
2019-04-23T04:11:16.661Z,38.30
2019-04-23T04:13:55.369Z,32.47
2019-04-23T04:18:44.171Z,31.17
2019-04-23T04:21:16.185Z,27.97
2019-04-23T04:24:01.663Z,35.97
2019-04-23T04:26:14.422Z,30.73
2019-04-23T04:31:16.262Z,43.63
2019-04-23T04:41:20.751Z,32.27
2019-04-23T04:48:49.341Z,26.17
2019-04-23T04:51:37.710Z,28.23
2019-04-23T04:54:06.365Z,31.37
2019-04-23T04:56:20.890Z,28.43
2019-04-23T04:59:03.675Z,30.13
2019-04-23T05:01:28.197Z,29.63
2019-04-23T05:03:36.275Z,28.77
2019-04-23T05:08:54.468Z,35.60
2019-04-23T05:16:19.636Z,23.93
2019-04-23T05:18:52.128Z,25.17
2019-04-23T05:21:20.775Z,27.13
2019-04-23T05:26:48.073Z,28.30
2019-04-23T05:33:58.166Z,22.53
2019-04-23T05:36:41.553Z,26.90
2019-04-23T05:39:00.877Z,26.67
2019-04-23T05:41:45.605Z,29.10
2019-04-23T05:44:15.966Z,34.90
2019-04-23T05:46:44.958Z,25.70
2019-04-23T05:49:17.312Z,22.57
2019-04-23T05:51:55.006Z,28.30
2019-04-23T05:54:20.787Z,27.17
2019-04-23T05:59:16.324Z,27.00
2019-04-23T06:04:36.996Z,30.30
2019-04-23T06:09:27.972Z,32.50
2019-04-23T06:11:56.995Z,28.85
2019-04-23T06:16:59.024Z,27.35
2019-04-23T06:19:21.052Z,27.67
2019-04-23T06:22:18.455Z,29.35
2019-04-23T06:24:26.107Z,31.57
2019-04-23T06:27:00.744Z,28.23
2019-04-23T06:31:55.306Z,31.60
2019-04-23T06:34:31.423Z,35.17
2019-04-23T06:36:57.231Z,28.98
2019-04-23T06:39:28.597Z,31.97
2019-04-23T06:42:02.002Z,33.33
2019-04-23T06:44:32.300Z,34.85
2019-04-23T06:47:03.553Z,34.88
2019-04-23T06:49:37.700Z,42.40
2019-04-23T06:52:15.129Z,38.63
2019-04-23T07:02:27.194Z,42.17
2019-04-23T07:04:43.341Z,36.10
2019-04-23T07:07:31.085Z,35.08
2019-04-23T07:09:35.233Z,25.12
2019-04-23T07:12:07.666Z,34.33
2019-04-23T07:14:44.558Z,29.12
2019-04-23T07:17:18.488Z,27.58
2019-04-23T07:22:12.916Z,30.00
2019-04-23T07:24:41.997Z,23.83
2019-04-23T07:27:11.972Z,23.65
2019-04-23T07:29:41.418Z,23.32
2019-04-23T07:32:05.321Z,29.25
2019-04-23T07:34:41.926Z,20.08
2019-04-23T07:37:22.970Z,26.52
2019-04-23T07:39:56.120Z,22.77
2019-04-23T07:42:20.586Z,26.85
2019-04-23T07:45:01.836Z,29.32
2019-04-23T07:48:00.263Z,19.62
2019-04-23T07:52:59.802Z,22.67
2019-04-23T07:55:32.252Z,22.35
2019-04-23T07:58:04.645Z,27.22
2019-04-23T08:00:29.836Z,24.92
2019-04-23T08:03:01.225Z,23.83
2019-04-23T08:05:22.629Z,18.98
2019-04-23T08:07:57.437Z,21.85
2019-04-23T08:10:24.667Z,21.75
2019-04-23T08:12:50.728Z,21.65
2019-04-23T08:15:22.990Z,19.55
2019-04-23T08:17:56.233Z,21.15
2019-04-23T08:20:24.580Z,15.60
2019-04-23T08:23:00.398Z,22.55
2019-04-23T08:25:55.869Z,18.25
2019-04-23T08:28:25.918Z,19.48
2019-04-23T08:30:50.249Z,20.27
2019-04-23T08:33:21.250Z,32.03
2019-04-23T08:35:50.987Z,21.97
2019-04-23T08:40:59.161Z,19.82
2019-04-23T08:43:36.435Z,22.87
2019-04-23T08:45:58.087Z,20.92
2019-04-23T08:48:34.489Z,16.95
2019-04-23T08:51:19.556Z,19.07
2019-04-23T08:56:03.642Z,18.67
2019-04-23T08:58:34.004Z,14.63
2019-04-23T09:01:07.757Z,14.58
2019-04-23T09:03:34.409Z,14.25
2019-04-23T09:06:05.335Z,18.50
2019-04-23T09:11:16.646Z,13.45
2019-04-23T09:16:22.429Z,19.02
2019-04-23T09:18:33.122Z,14.95
2019-04-23T09:21:07.352Z,13.05
2019-04-23T09:23:42.137Z,13.30
2019-04-23T09:26:22.129Z,28.17
2019-04-23T09:28:47.352Z,14.80
2019-04-23T09:31:18.859Z,13.72
2019-04-23T09:34:04.901Z,15.83
2019-04-23T09:36:37.832Z,19.00
2019-04-23T09:41:37.946Z,12.45
2019-04-23T09:52:07.244Z,13.30
2019-04-23T09:54:33.901Z,13.48
2019-04-23T09:56:57.178Z,13.18
2019-04-23T10:01:54.343Z,14.67
2019-04-23T10:04:20.892Z,17.87
2019-04-23T10:06:38.939Z,16.90
2019-04-23T10:09:10.615Z,14.40
2019-04-23T10:11:38.877Z,13.53
2019-04-23T10:14:08.306Z,15.15
2019-04-23T10:16:37.118Z,15.80
2019-04-23T10:19:06.124Z,12.98
2019-04-23T10:21:35.342Z,12.60
2019-04-23T10:24:05.402Z,13.80
2019-04-23T10:26:34.435Z,12.93
2019-04-23T10:29:05.537Z,12.90
2019-04-23T10:31:35.612Z,13.20
2019-04-23T10:34:06.365Z,15.13
2019-04-23T10:36:37.894Z,16.48
2019-04-23T10:39:15.595Z,13.68
2019-04-23T10:41:42.580Z,22.13
2019-04-23T10:44:11.140Z,11.73
2019-04-23T10:47:15.158Z,12.55
2019-04-23T10:49:53.200Z,14.03
2019-04-23T10:54:51.179Z,13.70
2019-04-23T10:57:31.628Z,13.40
2019-04-23T10:59:44.706Z,12.73
2019-04-23T11:15:09.255Z,15.58
2019-04-23T11:17:36.324Z,12.45
2019-04-23T11:25:04.199Z,14.07
2019-04-23T11:27:38.724Z,17.27
2019-04-23T11:37:56.474Z,14.63
2019-04-23T11:40:03.909Z,17.55
2019-04-23T11:42:50.180Z,15.87
2019-04-23T11:45:06.719Z,14.80
2019-04-23T11:48:07.705Z,15.32
2019-04-23T11:50:09.625Z,15.98
2019-04-23T11:52:48.839Z,14.38
2019-04-23T11:55:22.398Z,18.73
2019-04-23T12:00:05.525Z,15.53
2019-04-23T12:05:26.568Z,16.70
2019-04-23T12:08:03.840Z,15.20
2019-04-23T12:11:00.282Z,15.35
2019-04-23T12:15:53.535Z,15.50
2019-04-23T12:18:29.972Z,13.85
2019-04-23T12:21:06.653Z,19.50
2019-04-23T12:26:11.659Z,16.02
2019-04-23T12:28:44.135Z,17.75
2019-04-23T12:31:10.008Z,17.25
2019-04-23T12:33:45.202Z,19.52
2019-04-23T12:36:44.100Z,16.37
2019-04-23T12:39:05.027Z,14.95
2019-04-23T12:41:29.848Z,15.95
2019-04-23T12:44:03.314Z,15.73
2019-04-23T12:46:29.868Z,17.05
2019-04-23T12:49:10.733Z,17.45
2019-04-23T12:51:43.371Z,20.65
2019-04-23T12:53:57.767Z,14.93
2019-04-23T12:56:40.398Z,15.08
2019-04-23T12:59:01.756Z,15.55
2019-04-23T13:01:35.798Z,15.90
2019-04-23T13:03:59.721Z,17.45
2019-04-23T13:06:28.195Z,14.70
2019-04-23T13:09:11.753Z,15.75
2019-04-23T13:11:34.836Z,16.80
2019-04-23T13:14:10.640Z,15.88
2019-04-23T13:16:46.785Z,16.77
2019-04-23T13:19:20.516Z,15.38
2019-04-23T13:21:51.301Z,14.60
2019-04-23T13:24:27.069Z,15.50
2019-04-23T13:26:58.951Z,14.58
2019-04-23T13:29:28.988Z,26.02
2019-04-23T13:31:49.355Z,18.02
2019-04-23T13:34:37.605Z,19.15
2019-04-23T13:37:00.503Z,16.57
2019-04-23T13:39:24.608Z,16.60
2019-04-23T13:41:53.977Z,14.03
2019-04-23T13:44:26.130Z,14.70
2019-04-23T13:47:00.750Z,17.98
2019-04-23T13:49:37.654Z,15.48
2019-04-23T13:52:06.203Z,15.20
2019-04-23T13:54:52.202Z,15.65
2019-04-23T13:59:40.173Z,16.10
2019-04-23T14:02:08.999Z,19.07
2019-04-23T14:04:48.432Z,17.27
2019-04-23T14:07:10.297Z,14.55
2019-04-23T14:09:45.824Z,14.85
2019-04-23T14:12:09.045Z,15.48
2019-04-23T14:17:27.317Z,14.55
2019-04-23T14:19:38.283Z,16.45
2019-04-23T14:22:34.086Z,18.27
2019-04-23T14:24:53.157Z,15.13
2019-04-23T14:27:23.454Z,17.25
2019-04-23T14:32:17.159Z,15.45
2019-04-23T14:34:54.328Z,15.95
2019-04-23T14:37:25.130Z,19.67
2019-04-23T14:39:48.252Z,19.57
2019-04-23T14:42:30.828Z,15.63
2019-04-23T14:44:52.415Z,15.08
2019-04-23T14:47:24.257Z,16.17
2019-04-23T14:50:19.057Z,22.17
2019-04-23T15:00:03.089Z,18.07
2019-04-23T15:02:40.369Z,19.67
2019-04-23T15:05:06.501Z,21.90
2019-04-23T15:07:35.456Z,15.80
2019-04-23T15:10:12.185Z,18.75
2019-04-23T15:15:21.258Z,14.78
2019-04-23T15:17:34.666Z,15.72
2019-04-23T15:20:03.274Z,19.17
2019-04-23T15:22:47.965Z,14.75
2019-04-23T15:25:19.327Z,18.10
2019-04-23T15:29:57.756Z,16.12
2019-04-23T15:32:53.675Z,15.03
2019-04-23T15:38:16.132Z,18.75
2019-04-23T15:42:40.403Z,15.95
2019-04-23T15:45:19.068Z,18.70
2019-04-23T15:50:19.826Z,14.05
2019-04-23T15:52:56.421Z,16.90
2019-04-23T15:55:15.148Z,19.32
2019-04-23T15:58:01.017Z,14.78
2019-04-23T16:00:14.499Z,20.37
2019-04-23T16:02:17.426Z,13.88
2019-04-23T16:04:46.999Z,15.70
2019-04-23T16:07:31.747Z,19.48
2019-04-23T16:10:14.474Z,17.00
2019-04-23T16:12:51.894Z,15.20
2019-04-23T16:15:13.285Z,13.55
2019-04-23T16:18:01.644Z,19.17
2019-04-23T16:20:31.883Z,12.93
2019-04-23T16:22:52.823Z,12.88
2019-04-23T16:25:36.442Z,14.33
2019-04-23T16:27:56.816Z,20.75
2019-04-23T16:30:25.487Z,13.32
2019-04-23T16:33:08.388Z,14.43
2019-04-23T16:38:23.301Z,16.55
2019-04-23T16:43:12.709Z,16.42
2019-04-23T16:45:45.510Z,15.70
2019-04-23T16:48:26.193Z,17.05
2019-04-23T16:51:00.748Z,18.30
2019-04-23T16:55:47.615Z,13.35
2019-04-23T17:05:59.498Z,15.03
2019-04-23T17:11:08.941Z,20.02
2019-04-23T17:13:20.174Z,14.63
2019-04-23T17:16:01.774Z,20.20
2019-04-23T17:18:25.949Z,18.17
2019-04-23T17:20:53.002Z,18.87
2019-04-23T17:25:59.256Z,21.37
2019-04-23T17:28:24.797Z,19.82
2019-04-23T17:39:04.290Z,16.57
2019-04-23T17:42:01.401Z,19.05
2019-04-23T17:44:24.163Z,19.17
2019-04-23T17:46:50.905Z,20.10
2019-04-23T17:49:30.065Z,19.95
2019-04-23T17:52:01.052Z,36.85
2019-04-23T17:54:25.119Z,34.88
2019-04-23T17:57:01.850Z,35.70
2019-04-23T17:59:28.110Z,29.98
2019-04-23T18:02:18.417Z,30.68
2019-04-23T18:04:29.647Z,26.23
2019-04-23T18:06:56.001Z,18.32
2019-04-23T18:09:32.781Z,33.83
2019-04-23T18:12:09.828Z,36.60
2019-04-23T18:14:17.825Z,34.35
2019-04-23T18:16:56.931Z,35.78
2019-04-23T18:19:24.731Z,39.73
2019-04-23T18:22:17.442Z,28.77
2019-04-23T18:25:03.890Z,32.58
2019-04-23T18:27:33.103Z,32.80
2019-04-23T18:30:10.626Z,26.33
2019-04-23T18:32:43.181Z,28.55
2019-04-23T18:35:25.901Z,28.35
2019-04-23T18:37:44.336Z,31.60
2019-04-23T18:40:03.635Z,30.60
2019-04-23T18:42:43.710Z,26.33
2019-04-23T18:45:20.430Z,29.87
2019-04-23T18:47:45.731Z,34.38
2019-04-23T18:50:26.935Z,32.98
2019-04-23T18:55:29.824Z,26.60
2019-04-23T18:57:48.835Z,30.50
2019-04-23T19:00:27.151Z,40.10
2019-04-23T19:03:01.151Z,34.33
2019-04-23T19:05:52.607Z,32.95
2019-04-23T19:08:52.123Z,31.10
2019-04-23T19:11:07.262Z,52.65
2019-04-23T19:13:24.821Z,121.00
2019-04-23T19:16:01.669Z,209.52
2019-04-23T19:18:26.786Z,101.65
2019-04-23T19:21:00.956Z,69.70
2019-04-23T19:23:32.278Z,82.37
2019-04-23T19:25:51.718Z,58.45
2019-04-23T19:33:53.600Z,39.67
2019-04-23T19:38:35.244Z,35.60
2019-04-23T19:41:12.784Z,37.55
2019-04-23T19:43:55.654Z,39.48
2019-04-23T19:46:34.685Z,37.20
2019-04-23T19:48:58.025Z,39.65
2019-04-23T19:51:11.343Z,33.63
2019-04-23T19:53:55.243Z,26.25
2019-04-23T19:56:16.664Z,33.18
2019-04-23T19:58:48.422Z,38.50
2019-04-23T20:01:16.733Z,34.35
2019-04-23T20:03:50.038Z,29.87
2019-04-23T20:06:25.755Z,24.55
2019-04-23T20:11:21.817Z,22.48
2019-04-23T20:13:55.621Z,27.62
2019-04-23T20:16:25.982Z,23.07
2019-04-23T20:21:12.826Z,21.75
2019-04-23T20:29:15.448Z,31.60
2019-04-23T20:44:37.436Z,23.32
2019-04-23T20:47:13.314Z,29.50
2019-04-23T20:49:42.264Z,25.08
2019-04-23T20:57:22.831Z,24.02
2019-04-23T21:00:01.211Z,24.92
2019-04-23T21:02:52.460Z,24.52
2019-04-23T21:05:06.556Z,23.85
2019-04-23T21:07:41.902Z,26.45
2019-04-23T21:10:22.020Z,22.65
2019-04-23T21:12:50.207Z,25.70
2019-04-23T21:15:10.470Z,23.38
2019-04-23T21:17:43.857Z,20.43
2019-04-23T21:20:17.796Z,29.80
2019-04-23T21:22:32.105Z,22.27
2019-04-23T21:25:06.170Z,22.30
2019-04-23T21:27:46.746Z,28.87
2019-04-23T21:30:03.556Z,24.60
2019-04-23T21:37:58.900Z,26.65
2019-04-23T21:40:53.809Z,22.77
2019-04-23T21:45:40.767Z,33.42
2019-04-23T21:48:09.922Z,24.98
2019-04-23T21:50:43.868Z,21.42
2019-04-23T21:53:06.848Z,23.10
2019-04-23T21:55:48.424Z,21.12
2019-04-23T21:58:17.270Z,27.40
2019-04-23T22:00:53.441Z,28.12
2019-04-23T22:03:15.389Z,23.83
2019-04-23T22:05:49.665Z,35.33
2019-04-23T22:08:10.760Z,45.23
2019-04-23T22:13:24.613Z,36.08
2019-04-23T22:15:54.754Z,28.55
2019-04-23T22:18:18.252Z,33.53
2019-04-23T22:20:51.429Z,23.42
2019-04-23T22:23:18.348Z,26.82
2019-04-23T22:25:56.483Z,22.80
2019-04-23T22:28:18.118Z,27.58
2019-04-23T22:33:18.093Z,28.45
2019-04-23T22:35:57.492Z,26.93
2019-04-23T22:38:22.685Z,29.15
2019-04-23T22:40:49.499Z,24.90
2019-04-23T22:43:22.204Z,22.07
2019-04-23T22:48:23.696Z,23.27
2019-04-23T22:51:11.121Z,22.98
2019-04-23T22:53:14.733Z,22.85
2019-04-23T22:55:58.921Z,20.60
2019-04-23T22:58:20.013Z,23.73
2019-04-23T23:01:23.060Z,25.00
2019-04-23T23:03:51.315Z,19.90
2019-04-23T23:06:23.104Z,24.00
2019-04-23T23:08:59.957Z,21.90
2019-04-23T23:11:16.995Z,21.27
2019-04-23T23:14:09.682Z,22.40
2019-04-23T23:16:21.556Z,22.35
2019-04-23T23:18:57.165Z,31.52
2019-04-23T23:21:22.648Z,25.57
2019-04-23T23:23:54.295Z,21.73
2019-04-23T23:26:21.936Z,21.90
2019-04-23T23:28:55.361Z,19.20
2019-04-23T23:31:16.280Z,23.83
2019-04-23T23:33:54.221Z,26.75
2019-04-23T23:41:28.709Z,20.07
2019-04-23T23:44:07.635Z,22.37
2019-04-23T23:46:37.416Z,22.17
2019-04-23T23:48:59.147Z,21.62
2019-04-23T23:51:36.568Z,24.17
2019-04-23T23:56:19.405Z,30.17
2019-04-23T23:59:04.304Z,25.47
